sensor_id;sensor_type;location;lat;lon;timestamp;P1;durP1;ratioP1;P2;durP2;ratioP2
19084;SDS011;9675;51.538;6.728;2023-04-09T00:00:45;20.17;;;8.90;;
19084;SDS011;9675;51.538;6.728;2023-04-09T00:03:13;15.80;;;7.60;;
19084;SDS011;9675;51.538;6.728;2023-04-09T00:05:42;14.13;;;7.57;;
19084;SDS011;9675;51.538;6.728;2023-04-09T00:08:09;17.87;;;7.87;;
19084;SDS011;9675;51.538;6.728;2023-04-09T00:10:36;17.10;;;7.67;;
19084;SDS011;9675;51.538;6.728;2023-04-09T00:13:03;15.83;;;8.17;;
19084;SDS011;9675;51.538;6.728;2023-04-09T00:15:30;17.33;;;7.77;;
19084;SDS011;9675;51.538;6.728;2023-04-09T00:17:57;16.43;;;7.80;;
19084;SDS011;9675;51.538;6.728;2023-04-09T00:20:26;17.07;;;7.53;;
19084;SDS011;9675;51.538;6.728;2023-04-09T00:22:53;13.57;;;6.67;;
19084;SDS011;9675;51.538;6.728;2023-04-09T00:25:20;15.63;;;7.23;;
19084;SDS011;9675;51.538;6.728;2023-04-09T00:27:47;14.37;;;7.00;;
19084;SDS011;9675;51.538;6.728;2023-04-09T00:30:14;15.70;;;7.23;;
19084;SDS011;9675;51.538;6.728;2023-04-09T00:32:41;18.17;;;7.83;;
19084;SDS011;9675;51.538;6.728;2023-04-09T00:35:08;17.13;;;8.00;;
19084;SDS011;9675;51.538;6.728;2023-04-09T00:37:37;18.07;;;8.30;;
19084;SDS011;9675;51.538;6.728;2023-04-09T00:40:05;18.20;;;7.03;;
19084;SDS011;9675;51.538;6.728;2023-04-09T00:42:33;15.70;;;7.87;;
19084;SDS011;9675;51.538;6.728;2023-04-09T00:45:02;14.73;;;6.93;;
19084;SDS011;9675;51.538;6.728;2023-04-09T00:47:31;12.67;;;6.53;;
19084;SDS011;9675;51.538;6.728;2023-04-09T00:50:00;16.47;;;7.37;;
19084;SDS011;9675;51.538;6.728;2023-04-09T00:52:28;15.13;;;6.80;;
19084;SDS011;9675;51.538;6.728;2023-04-09T00:54:57;14.97;;;7.67;;
19084;SDS011;9675;51.538;6.728;2023-04-09T00:57:26;14.67;;;6.40;;
19084;SDS011;9675;51.538;6.728;2023-04-09T00:59:53;13.37;;;7.00;;
19084;SDS011;9675;51.538;6.728;2023-04-09T01:02:21;14.97;;;7.80;;
19084;SDS011;9675;51.538;6.728;2023-04-09T01:04:48;14.87;;;7.10;;
19084;SDS011;9675;51.538;6.728;2023-04-09T01:07:18;15.17;;;7.77;;
19084;SDS011;9675;51.538;6.728;2023-04-09T01:09:59;18.93;;;7.23;;
19084;SDS011;9675;51.538;6.728;2023-04-09T01:12:41;15.83;;;6.50;;
19084;SDS011;9675;51.538;6.728;2023-04-09T01:15:25;14.63;;;7.00;;
19084;SDS011;9675;51.538;6.728;2023-04-09T01:17:58;17.00;;;7.83;;
19084;SDS011;9675;51.538;6.728;2023-04-09T01:20:34;16.10;;;7.50;;
19084;SDS011;9675;51.538;6.728;2023-04-09T01:23:09;18.20;;;7.83;;
19084;SDS011;9675;51.538;6.728;2023-04-09T01:25:49;17.77;;;7.63;;
19084;SDS011;9675;51.538;6.728;2023-04-09T01:28:32;15.90;;;6.60;;
19084;SDS011;9675;51.538;6.728;2023-04-09T01:31:03;13.33;;;6.17;;
19084;SDS011;9675;51.538;6.728;2023-04-09T01:33:37;19.43;;;7.67;;
19084;SDS011;9675;51.538;6.728;2023-04-09T01:36:06;16.90;;;7.80;;
19084;SDS011;9675;51.538;6.728;2023-04-09T01:38:35;16.13;;;7.07;;
19084;SDS011;9675;51.538;6.728;2023-04-09T01:41:06;15.73;;;6.93;;
19084;SDS011;9675;51.538;6.728;2023-04-09T01:43:38;14.13;;;6.40;;
19084;SDS011;9675;51.538;6.728;2023-04-09T01:46:07;19.10;;;7.10;;
19084;SDS011;9675;51.538;6.728;2023-04-09T01:48:36;13.70;;;6.73;;
19084;SDS011;9675;51.538;6.728;2023-04-09T01:51:04;14.53;;;7.10;;
19084;SDS011;9675;51.538;6.728;2023-04-09T01:53:31;13.03;;;6.43;;
19084;SDS011;9675;51.538;6.728;2023-04-09T01:55:58;15.13;;;7.50;;
19084;SDS011;9675;51.538;6.728;2023-04-09T01:58:27;18.83;;;7.17;;
19084;SDS011;9675;51.538;6.728;2023-04-09T02:00:59;21.33;;;8.57;;
19084;SDS011;9675;51.538;6.728;2023-04-09T02:03:37;18.07;;;7.87;;
19084;SDS011;9675;51.538;6.728;2023-04-09T02:06:12;16.30;;;6.83;;
19084;SDS011;9675;51.538;6.728;2023-04-09T02:08:47;14.97;;;7.17;;
19084;SDS011;9675;51.538;6.728;2023-04-09T02:11:18;14.93;;;6.30;;
19084;SDS011;9675;51.538;6.728;2023-04-09T02:13:49;14.53;;;5.97;;
19084;SDS011;9675;51.538;6.728;2023-04-09T02:16:22;14.10;;;5.93;;
19084;SDS011;9675;51.538;6.728;2023-04-09T02:18:52;15.93;;;7.43;;
19084;SDS011;9675;51.538;6.728;2023-04-09T02:21:20;16.23;;;7.60;;
19084;SDS011;9675;51.538;6.728;2023-04-09T02:23:48;14.27;;;6.67;;
19084;SDS011;9675;51.538;6.728;2023-04-09T02:26:15;15.70;;;7.27;;
19084;SDS011;9675;51.538;6.728;2023-04-09T02:28:42;15.83;;;6.73;;
19084;SDS011;9675;51.538;6.728;2023-04-09T02:31:09;17.10;;;7.57;;
19084;SDS011;9675;51.538;6.728;2023-04-09T02:33:37;19.00;;;7.30;;
19084;SDS011;9675;51.538;6.728;2023-04-09T02:36:05;17.03;;;6.70;;
19084;SDS011;9675;51.538;6.728;2023-04-09T02:38:35;17.50;;;7.60;;
19084;SDS011;9675;51.538;6.728;2023-04-09T02:41:03;16.77;;;6.73;;
19084;SDS011;9675;51.538;6.728;2023-04-09T02:43:30;16.30;;;7.73;;
19084;SDS011;9675;51.538;6.728;2023-04-09T02:45:57;11.97;;;6.10;;
19084;SDS011;9675;51.538;6.728;2023-04-09T02:48:24;14.97;;;5.93;;
19084;SDS011;9675;51.538;6.728;2023-04-09T02:50:52;15.67;;;6.80;;
19084;SDS011;9675;51.538;6.728;2023-04-09T02:53:19;18.07;;;6.77;;
19084;SDS011;9675;51.538;6.728;2023-04-09T02:55:47;15.90;;;6.97;;
19084;SDS011;9675;51.538;6.728;2023-04-09T02:58:14;14.77;;;6.73;;
19084;SDS011;9675;51.538;6.728;2023-04-09T03:00:41;15.77;;;5.87;;
19084;SDS011;9675;51.538;6.728;2023-04-09T03:03:08;14.93;;;6.63;;
19084;SDS011;9675;51.538;6.728;2023-04-09T03:05:35;13.27;;;6.07;;
19084;SDS011;9675;51.538;6.728;2023-04-09T03:08:04;16.87;;;7.03;;
19084;SDS011;9675;51.538;6.728;2023-04-09T03:10:31;13.93;;;7.33;;
19084;SDS011;9675;51.538;6.728;2023-04-09T03:12:58;17.53;;;7.33;;
19084;SDS011;9675;51.538;6.728;2023-04-09T03:15:25;16.20;;;6.63;;
19084;SDS011;9675;51.538;6.728;2023-04-09T03:17:52;21.07;;;7.97;;
19084;SDS011;9675;51.538;6.728;2023-04-09T03:20:19;18.57;;;8.60;;
19084;SDS011;9675;51.538;6.728;2023-04-09T03:22:46;18.80;;;7.67;;
19084;SDS011;9675;51.538;6.728;2023-04-09T03:25:15;16.10;;;7.37;;
19084;SDS011;9675;51.538;6.728;2023-04-09T03:27:43;16.93;;;8.27;;
19084;SDS011;9675;51.538;6.728;2023-04-09T03:30:10;16.37;;;7.13;;
19084;SDS011;9675;51.538;6.728;2023-04-09T03:32:38;16.10;;;8.83;;
19084;SDS011;9675;51.538;6.728;2023-04-09T03:35:05;19.73;;;9.60;;
19084;SDS011;9675;51.538;6.728;2023-04-09T03:37:33;17.87;;;7.67;;
19084;SDS011;9675;51.538;6.728;2023-04-09T03:40:00;16.23;;;7.77;;
19084;SDS011;9675;51.538;6.728;2023-04-09T03:42:29;19.77;;;8.17;;
19084;SDS011;9675;51.538;6.728;2023-04-09T03:44:59;14.50;;;6.57;;
19084;SDS011;9675;51.538;6.728;2023-04-09T03:47:26;19.47;;;7.90;;
19084;SDS011;9675;51.538;6.728;2023-04-09T03:49:53;14.27;;;6.83;;
19084;SDS011;9675;51.538;6.728;2023-04-09T03:52:20;18.47;;;7.37;;
19084;SDS011;9675;51.538;6.728;2023-04-09T03:54:47;18.00;;;7.43;;
19084;SDS011;9675;51.538;6.728;2023-04-09T03:57:14;17.93;;;7.10;;
19084;SDS011;9675;51.538;6.728;2023-04-09T03:59:42;14.83;;;6.60;;
19084;SDS011;9675;51.538;6.728;2023-04-09T04:02:10;15.20;;;6.53;;
19084;SDS011;9675;51.538;6.728;2023-04-09T04:04:37;14.40;;;6.63;;
19084;SDS011;9675;51.538;6.728;2023-04-09T04:07:04;16.77;;;7.57;;
19084;SDS011;9675;51.538;6.728;2023-04-09T04:09:31;19.40;;;7.90;;
19084;SDS011;9675;51.538;6.728;2023-04-09T04:11:59;16.93;;;7.53;;
19084;SDS011;9675;51.538;6.728;2023-04-09T04:14:27;17.50;;;8.00;;
19084;SDS011;9675;51.538;6.728;2023-04-09T04:16:55;19.73;;;7.43;;
19084;SDS011;9675;51.538;6.728;2023-04-09T04:19:22;15.90;;;7.23;;
19084;SDS011;9675;51.538;6.728;2023-04-09T04:21:49;16.47;;;7.73;;
19084;SDS011;9675;51.538;6.728;2023-04-09T04:24:16;12.83;;;6.60;;
19084;SDS011;9675;51.538;6.728;2023-04-09T04:26:43;17.07;;;7.73;;
19084;SDS011;9675;51.538;6.728;2023-04-09T04:29:10;14.80;;;6.50;;
19084;SDS011;9675;51.538;6.728;2023-04-09T04:31:37;18.03;;;8.27;;
19084;SDS011;9675;51.538;6.728;2023-04-09T04:34:06;13.40;;;6.77;;
19084;SDS011;9675;51.538;6.728;2023-04-09T04:36:33;16.77;;;7.30;;
19084;SDS011;9675;51.538;6.728;2023-04-09T04:39:01;14.77;;;7.30;;
19084;SDS011;9675;51.538;6.728;2023-04-09T04:41:29;15.10;;;7.17;;
19084;SDS011;9675;51.538;6.728;2023-04-09T04:43:56;16.80;;;7.20;;
19084;SDS011;9675;51.538;6.728;2023-04-09T04:46:23;15.47;;;6.83;;
19084;SDS011;9675;51.538;6.728;2023-04-09T04:48:50;13.27;;;6.23;;
19084;SDS011;9675;51.538;6.728;2023-04-09T04:51:18;15.97;;;6.83;;
19084;SDS011;9675;51.538;6.728;2023-04-09T04:53:45;14.43;;;6.53;;
19084;SDS011;9675;51.538;6.728;2023-04-09T04:56:12;13.67;;;7.60;;
19084;SDS011;9675;51.538;6.728;2023-04-09T04:58:40;19.87;;;7.70;;
19084;SDS011;9675;51.538;6.728;2023-04-09T05:01:08;17.37;;;7.47;;
19084;SDS011;9675;51.538;6.728;2023-04-09T05:03:35;16.00;;;6.90;;
19084;SDS011;9675;51.538;6.728;2023-04-09T05:06:02;18.17;;;7.53;;
19084;SDS011;9675;51.538;6.728;2023-04-09T05:08:31;17.17;;;7.57;;
19084;SDS011;9675;51.538;6.728;2023-04-09T05:10:58;18.53;;;7.13;;
19084;SDS011;9675;51.538;6.728;2023-04-09T05:13:25;17.30;;;6.83;;
19084;SDS011;9675;51.538;6.728;2023-04-09T05:15:52;17.60;;;7.83;;
19084;SDS011;9675;51.538;6.728;2023-04-09T05:18:19;22.43;;;7.30;;
19084;SDS011;9675;51.538;6.728;2023-04-09T05:20:46;16.33;;;7.40;;
19084;SDS011;9675;51.538;6.728;2023-04-09T05:23:13;18.40;;;8.27;;
19084;SDS011;9675;51.538;6.728;2023-04-09T05:25:41;14.43;;;7.37;;
19084;SDS011;9675;51.538;6.728;2023-04-09T05:28:08;17.10;;;7.43;;
19084;SDS011;9675;51.538;6.728;2023-04-09T05:30:36;16.40;;;7.73;;
19084;SDS011;9675;51.538;6.728;2023-04-09T05:33:03;15.30;;;7.10;;
19084;SDS011;9675;51.538;6.728;2023-04-09T05:35:30;17.80;;;8.27;;
19084;SDS011;9675;51.538;6.728;2023-04-09T05:37:57;22.23;;;7.77;;
19084;SDS011;9675;51.538;6.728;2023-04-09T05:40:24;19.30;;;7.87;;
19084;SDS011;9675;51.538;6.728;2023-04-09T05:42:52;15.03;;;6.90;;
19084;SDS011;9675;51.538;6.728;2023-04-09T05:45:20;17.90;;;7.33;;
19084;SDS011;9675;51.538;6.728;2023-04-09T05:47:47;19.57;;;9.00;;
19084;SDS011;9675;51.538;6.728;2023-04-09T05:50:14;19.90;;;7.97;;
19084;SDS011;9675;51.538;6.728;2023-04-09T05:52:41;20.10;;;7.70;;
19084;SDS011;9675;51.538;6.728;2023-04-09T05:55:08;18.50;;;7.43;;
19084;SDS011;9675;51.538;6.728;2023-04-09T05:57:35;18.57;;;7.13;;
19084;SDS011;9675;51.538;6.728;2023-04-09T06:00:04;20.83;;;7.93;;
19084;SDS011;9675;51.538;6.728;2023-04-09T06:02:33;17.20;;;7.00;;
19084;SDS011;9675;51.538;6.728;2023-04-09T06:05:00;19.43;;;8.10;;
19084;SDS011;9675;51.538;6.728;2023-04-09T06:07:27;15.20;;;6.90;;
19084;SDS011;9675;51.538;6.728;2023-04-09T06:09:54;18.90;;;7.97;;
19084;SDS011;9675;51.538;6.728;2023-04-09T06:12:22;17.77;;;7.37;;
19084;SDS011;9675;51.538;6.728;2023-04-09T06:14:49;17.27;;;7.67;;
19084;SDS011;9675;51.538;6.728;2023-04-09T06:17:17;18.80;;;7.83;;
19084;SDS011;9675;51.538;6.728;2023-04-09T06:19:44;22.17;;;8.23;;
19084;SDS011;9675;51.538;6.728;2023-04-09T06:22:11;21.50;;;8.90;;
19084;SDS011;9675;51.538;6.728;2023-04-09T06:24:38;16.03;;;6.83;;
19084;SDS011;9675;51.538;6.728;2023-04-09T06:27:05;14.27;;;6.73;;
19084;SDS011;9675;51.538;6.728;2023-04-09T06:29:32;19.50;;;6.87;;
19084;SDS011;9675;51.538;6.728;2023-04-09T06:32:00;16.63;;;6.73;;
19084;SDS011;9675;51.538;6.728;2023-04-09T06:34:28;14.00;;;6.63;;
19084;SDS011;9675;51.538;6.728;2023-04-09T06:36:55;19.00;;;8.60;;
19084;SDS011;9675;51.538;6.728;2023-04-09T06:39:22;17.83;;;5.93;;
19084;SDS011;9675;51.538;6.728;2023-04-09T06:41:49;15.87;;;6.97;;
19084;SDS011;9675;51.538;6.728;2023-04-09T06:44:16;14.17;;;7.13;;
19084;SDS011;9675;51.538;6.728;2023-04-09T06:46:44;16.83;;;7.50;;
19084;SDS011;9675;51.538;6.728;2023-04-09T06:49:11;15.17;;;6.93;;
19084;SDS011;9675;51.538;6.728;2023-04-09T06:51:40;17.50;;;7.60;;
19084;SDS011;9675;51.538;6.728;2023-04-09T06:54:07;18.83;;;6.73;;
19084;SDS011;9675;51.538;6.728;2023-04-09T06:56:34;16.97;;;7.67;;
19084;SDS011;9675;51.538;6.728;2023-04-09T06:59:01;16.80;;;7.23;;
19084;SDS011;9675;51.538;6.728;2023-04-09T07:01:28;20.20;;;7.27;;
19084;SDS011;9675;51.538;6.728;2023-04-09T07:03:55;20.77;;;9.50;;
19084;SDS011;9675;51.538;6.728;2023-04-09T07:06:22;17.43;;;6.30;;
19084;SDS011;9675;51.538;6.728;2023-04-09T07:08:51;22.10;;;8.97;;
19084;SDS011;9675;51.538;6.728;2023-04-09T07:11:18;17.70;;;7.43;;
19084;SDS011;9675;51.538;6.728;2023-04-09T07:13:45;23.80;;;8.87;;
19084;SDS011;9675;51.538;6.728;2023-04-09T07:16:12;15.17;;;6.67;;
19084;SDS011;9675;51.538;6.728;2023-04-09T07:18:39;26.30;;;9.83;;
19084;SDS011;9675;51.538;6.728;2023-04-09T07:21:07;19.70;;;7.63;;
19084;SDS011;9675;51.538;6.728;2023-04-09T07:23:34;18.97;;;6.93;;
19084;SDS011;9675;51.538;6.728;2023-04-09T07:26:03;19.47;;;9.00;;
19084;SDS011;9675;51.538;6.728;2023-04-09T07:28:31;19.13;;;7.93;;
19084;SDS011;9675;51.538;6.728;2023-04-09T07:30:59;20.13;;;9.00;;
19084;SDS011;9675;51.538;6.728;2023-04-09T07:33:26;16.20;;;7.17;;
19084;SDS011;9675;51.538;6.728;2023-04-09T07:39:35;22.83;;;8.97;;
19084;SDS011;9675;51.538;6.728;2023-04-09T07:42:03;23.47;;;10.80;;
19084;SDS011;9675;51.538;6.728;2023-04-09T07:44:32;23.00;;;8.83;;
19084;SDS011;9675;51.538;6.728;2023-04-09T07:47:00;15.57;;;6.73;;
19084;SDS011;9675;51.538;6.728;2023-04-09T07:49:27;15.40;;;5.90;;
19084;SDS011;9675;51.538;6.728;2023-04-09T07:51:55;20.00;;;9.23;;
19084;SDS011;9675;51.538;6.728;2023-04-09T07:54:22;18.27;;;7.67;;
19084;SDS011;9675;51.538;6.728;2023-04-09T07:56:49;21.63;;;8.80;;
19084;SDS011;9675;51.538;6.728;2023-04-09T07:59:19;19.30;;;7.67;;
19084;SDS011;9675;51.538;6.728;2023-04-09T08:01:46;21.67;;;8.43;;
19084;SDS011;9675;51.538;6.728;2023-04-09T08:04:13;13.77;;;6.53;;
19084;SDS011;9675;51.538;6.728;2023-04-09T08:06:40;13.63;;;5.93;;
19084;SDS011;9675;51.538;6.728;2023-04-09T08:09:10;14.23;;;7.03;;
19084;SDS011;9675;51.538;6.728;2023-04-09T08:11:39;13.40;;;6.50;;
19084;SDS011;9675;51.538;6.728;2023-04-09T08:14:06;14.90;;;7.43;;
19084;SDS011;9675;51.538;6.728;2023-04-09T08:16:38;12.43;;;6.10;;
19084;SDS011;9675;51.538;6.728;2023-04-09T08:19:06;14.10;;;6.60;;
19084;SDS011;9675;51.538;6.728;2023-04-09T08:21:35;13.53;;;6.47;;
19084;SDS011;9675;51.538;6.728;2023-04-09T08:24:03;13.03;;;5.67;;
19084;SDS011;9675;51.538;6.728;2023-04-09T08:26:31;13.00;;;6.17;;
19084;SDS011;9675;51.538;6.728;2023-04-09T08:28:58;17.50;;;6.83;;
19084;SDS011;9675;51.538;6.728;2023-04-09T08:31:26;13.17;;;5.40;;
19084;SDS011;9675;51.538;6.728;2023-04-09T08:33:54;11.80;;;5.33;;
19084;SDS011;9675;51.538;6.728;2023-04-09T08:36:21;11.47;;;5.50;;
19084;SDS011;9675;51.538;6.728;2023-04-09T08:38:48;9.33;;;5.00;;
19084;SDS011;9675;51.538;6.728;2023-04-09T08:41:17;10.27;;;4.93;;
19084;SDS011;9675;51.538;6.728;2023-04-09T08:43:46;10.53;;;4.30;;
19084;SDS011;9675;51.538;6.728;2023-04-09T08:46:13;13.73;;;6.53;;
19084;SDS011;9675;51.538;6.728;2023-04-09T08:48:41;16.07;;;5.90;;
19084;SDS011;9675;51.538;6.728;2023-04-09T08:51:15;11.87;;;5.17;;
19084;SDS011;9675;51.538;6.728;2023-04-09T08:53:44;8.83;;;4.43;;
19084;SDS011;9675;51.538;6.728;2023-04-09T08:56:14;9.70;;;4.43;;
19084;SDS011;9675;51.538;6.728;2023-04-09T08:58:42;11.03;;;4.93;;
19084;SDS011;9675;51.538;6.728;2023-04-09T09:01:17;8.97;;;3.73;;
19084;SDS011;9675;51.538;6.728;2023-04-09T09:03:52;9.23;;;4.23;;
19084;SDS011;9675;51.538;6.728;2023-04-09T09:06:24;9.50;;;4.73;;
19084;SDS011;9675;51.538;6.728;2023-04-09T09:09:03;9.40;;;5.33;;
19084;SDS011;9675;51.538;6.728;2023-04-09T09:11:33;7.80;;;4.47;;
19084;SDS011;9675;51.538;6.728;2023-04-09T09:14:02;10.13;;;4.93;;
19084;SDS011;9675;51.538;6.728;2023-04-09T09:16:30;11.60;;;4.40;;
19084;SDS011;9675;51.538;6.728;2023-04-09T09:18:59;9.17;;;3.77;;
19084;SDS011;9675;51.538;6.728;2023-04-09T09:21:29;12.63;;;5.27;;
19084;SDS011;9675;51.538;6.728;2023-04-09T09:23:57;10.97;;;5.13;;
19084;SDS011;9675;51.538;6.728;2023-04-09T09:26:25;7.20;;;4.23;;
19084;SDS011;9675;51.538;6.728;2023-04-09T09:28:54;6.97;;;3.73;;
19084;SDS011;9675;51.538;6.728;2023-04-09T09:31:23;7.73;;;3.90;;
19084;SDS011;9675;51.538;6.728;2023-04-09T09:33:51;6.17;;;3.30;;
19084;SDS011;9675;51.538;6.728;2023-04-09T09:36:30;7.00;;;3.43;;
19084;SDS011;9675;51.538;6.728;2023-04-09T09:38:59;9.20;;;3.53;;
19084;SDS011;9675;51.538;6.728;2023-04-09T09:41:33;6.57;;;3.17;;
19084;SDS011;9675;51.538;6.728;2023-04-09T09:44:01;7.17;;;3.50;;
19084;SDS011;9675;51.538;6.728;2023-04-09T09:46:32;7.07;;;3.37;;
19084;SDS011;9675;51.538;6.728;2023-04-09T09:49:03;7.67;;;3.27;;
19084;SDS011;9675;51.538;6.728;2023-04-09T09:51:32;6.07;;;2.37;;
19084;SDS011;9675;51.538;6.728;2023-04-09T09:54:02;11.03;;;4.00;;
19084;SDS011;9675;51.538;6.728;2023-04-09T09:56:35;5.90;;;2.47;;
19084;SDS011;9675;51.538;6.728;2023-04-09T09:59:09;6.40;;;2.63;;
19084;SDS011;9675;51.538;6.728;2023-04-09T10:01:45;8.63;;;3.40;;
19084;SDS011;9675;51.538;6.728;2023-04-09T10:04:16;8.63;;;3.47;;
19084;SDS011;9675;51.538;6.728;2023-04-09T10:06:47;6.80;;;3.27;;
19084;SDS011;9675;51.538;6.728;2023-04-09T10:09:16;8.30;;;3.27;;
19084;SDS011;9675;51.538;6.728;2023-04-09T10:11:47;6.57;;;2.97;;
19084;SDS011;9675;51.538;6.728;2023-04-09T10:14:15;11.53;;;5.50;;
19084;SDS011;9675;51.538;6.728;2023-04-09T10:16:45;9.13;;;4.10;;
19084;SDS011;9675;51.538;6.728;2023-04-09T10:19:12;4.33;;;2.40;;
19084;SDS011;9675;51.538;6.728;2023-04-09T10:21:42;5.80;;;2.30;;
19084;SDS011;9675;51.538;6.728;2023-04-09T10:24:18;8.60;;;3.07;;
19084;SDS011;9675;51.538;6.728;2023-04-09T10:26:47;7.27;;;2.93;;
19084;SDS011;9675;51.538;6.728;2023-04-09T10:29:14;4.97;;;1.90;;
19084;SDS011;9675;51.538;6.728;2023-04-09T10:31:45;6.60;;;3.40;;
19084;SDS011;9675;51.538;6.728;2023-04-09T10:34:16;8.10;;;3.27;;
19084;SDS011;9675;51.538;6.728;2023-04-09T10:36:50;4.73;;;3.00;;
19084;SDS011;9675;51.538;6.728;2023-04-09T10:39:24;10.57;;;4.57;;
19084;SDS011;9675;51.538;6.728;2023-04-09T10:41:54;4.97;;;2.70;;
19084;SDS011;9675;51.538;6.728;2023-04-09T10:44:22;5.33;;;2.67;;
19084;SDS011;9675;51.538;6.728;2023-04-09T10:46:52;5.33;;;2.83;;
19084;SDS011;9675;51.538;6.728;2023-04-09T10:49:20;3.30;;;2.20;;
19084;SDS011;9675;51.538;6.728;2023-04-09T10:51:51;5.00;;;3.03;;
19084;SDS011;9675;51.538;6.728;2023-04-09T10:54:42;6.93;;;2.63;;
19084;SDS011;9675;51.538;6.728;2023-04-09T10:57:15;5.17;;;2.63;;
19084;SDS011;9675;51.538;6.728;2023-04-09T10:59:45;4.33;;;2.30;;
19084;SDS011;9675;51.538;6.728;2023-04-09T11:05:30;7.13;;;2.80;;
19084;SDS011;9675;51.538;6.728;2023-04-09T11:08:04;5.03;;;2.67;;
19084;SDS011;9675;51.538;6.728;2023-04-09T11:10:35;6.03;;;3.30;;
19084;SDS011;9675;51.538;6.728;2023-04-09T11:13:03;7.23;;;3.20;;
19084;SDS011;9675;51.538;6.728;2023-04-09T11:15:33;5.80;;;3.17;;
19084;SDS011;9675;51.538;6.728;2023-04-09T11:18:01;3.83;;;2.63;;
19084;SDS011;9675;51.538;6.728;2023-04-09T11:20:32;7.00;;;3.67;;
19084;SDS011;9675;51.538;6.728;2023-04-09T11:23:00;5.43;;;3.00;;
19084;SDS011;9675;51.538;6.728;2023-04-09T11:25:29;6.70;;;2.90;;
19084;SDS011;9675;51.538;6.728;2023-04-09T11:27:59;6.07;;;2.87;;
19084;SDS011;9675;51.538;6.728;2023-04-09T11:30:29;4.53;;;2.63;;
19084;SDS011;9675;51.538;6.728;2023-04-09T11:32:59;4.60;;;2.07;;
19084;SDS011;9675;51.538;6.728;2023-04-09T11:35:27;3.17;;;2.13;;
19084;SDS011;9675;51.538;6.728;2023-04-09T11:37:54;5.37;;;2.77;;
19084;SDS011;9675;51.538;6.728;2023-04-09T11:40:22;5.20;;;2.90;;
19084;SDS011;9675;51.538;6.728;2023-04-09T11:42:52;6.47;;;2.70;;
19084;SDS011;9675;51.538;6.728;2023-04-09T11:45:23;3.80;;;1.77;;
19084;SDS011;9675;51.538;6.728;2023-04-09T11:47:52;4.87;;;2.63;;
19084;SDS011;9675;51.538;6.728;2023-04-09T11:50:20;4.13;;;2.07;;
19084;SDS011;9675;51.538;6.728;2023-04-09T11:52:49;7.00;;;2.43;;
19084;SDS011;9675;51.538;6.728;2023-04-09T11:55:22;4.67;;;1.80;;
19084;SDS011;9675;51.538;6.728;2023-04-09T11:57:53;6.00;;;2.90;;
19084;SDS011;9675;51.538;6.728;2023-04-09T12:00:25;4.63;;;2.27;;
19084;SDS011;9675;51.538;6.728;2023-04-09T12:03:00;4.03;;;2.23;;
19084;SDS011;9675;51.538;6.728;2023-04-09T12:05:30;4.13;;;1.93;;
19084;SDS011;9675;51.538;6.728;2023-04-09T12:07:59;4.50;;;2.53;;
19084;SDS011;9675;51.538;6.728;2023-04-09T12:10:32;7.10;;;2.80;;
19084;SDS011;9675;51.538;6.728;2023-04-09T12:13:03;3.73;;;2.20;;
19084;SDS011;9675;51.538;6.728;2023-04-09T12:15:34;3.83;;;2.00;;
19084;SDS011;9675;51.538;6.728;2023-04-09T12:18:06;6.10;;;3.00;;
19084;SDS011;9675;51.538;6.728;2023-04-09T12:20:35;4.17;;;2.57;;
19084;SDS011;9675;51.538;6.728;2023-04-09T12:23:05;4.67;;;2.70;;
19084;SDS011;9675;51.538;6.728;2023-04-09T12:25:35;6.60;;;3.33;;
19084;SDS011;9675;51.538;6.728;2023-04-09T12:28:06;5.00;;;1.90;;
19084;SDS011;9675;51.538;6.728;2023-04-09T12:30:36;5.47;;;2.50;;
19084;SDS011;9675;51.538;6.728;2023-04-09T12:33:04;4.47;;;2.70;;
19084;SDS011;9675;51.538;6.728;2023-04-09T12:35:32;3.43;;;1.77;;
19084;SDS011;9675;51.538;6.728;2023-04-09T12:37:59;4.93;;;2.80;;
19084;SDS011;9675;51.538;6.728;2023-04-09T12:40:26;5.53;;;2.70;;
19084;SDS011;9675;51.538;6.728;2023-04-09T12:42:53;7.30;;;3.40;;
19084;SDS011;9675;51.538;6.728;2023-04-09T12:45:22;6.47;;;3.47;;
19084;SDS011;9675;51.538;6.728;2023-04-09T12:47:49;5.27;;;3.07;;
19084;SDS011;9675;51.538;6.728;2023-04-09T12:50:16;4.67;;;2.73;;
19084;SDS011;9675;51.538;6.728;2023-04-09T12:52:44;4.30;;;2.80;;
19084;SDS011;9675;51.538;6.728;2023-04-09T12:55:13;5.73;;;2.97;;
19084;SDS011;9675;51.538;6.728;2023-04-09T12:57:41;3.97;;;2.40;;
19084;SDS011;9675;51.538;6.728;2023-04-09T13:00:11;5.70;;;3.13;;
19084;SDS011;9675;51.538;6.728;2023-04-09T13:02:41;4.27;;;2.73;;
19084;SDS011;9675;51.538;6.728;2023-04-09T13:05:08;4.47;;;2.50;;
19084;SDS011;9675;51.538;6.728;2023-04-09T13:07:35;5.03;;;2.57;;
19084;SDS011;9675;51.538;6.728;2023-04-09T13:10:02;3.87;;;2.37;;
19084;SDS011;9675;51.538;6.728;2023-04-09T13:12:30;5.47;;;2.97;;
19084;SDS011;9675;51.538;6.728;2023-04-09T13:14:57;4.50;;;2.83;;
19084;SDS011;9675;51.538;6.728;2023-04-09T13:17:24;5.47;;;2.87;;
19084;SDS011;9675;51.538;6.728;2023-04-09T13:19:53;5.03;;;2.53;;
19084;SDS011;9675;51.538;6.728;2023-04-09T13:22:20;6.47;;;3.13;;
19084;SDS011;9675;51.538;6.728;2023-04-09T13:24:47;4.17;;;2.07;;
19084;SDS011;9675;51.538;6.728;2023-04-09T13:27:14;5.97;;;3.10;;
19084;SDS011;9675;51.538;6.728;2023-04-09T13:29:41;4.63;;;2.27;;
19084;SDS011;9675;51.538;6.728;2023-04-09T13:32:08;4.90;;;2.90;;
19084;SDS011;9675;51.538;6.728;2023-04-09T13:34:37;5.93;;;2.97;;
19084;SDS011;9675;51.538;6.728;2023-04-09T13:37:06;3.33;;;2.60;;
19084;SDS011;9675;51.538;6.728;2023-04-09T13:39:34;4.17;;;2.60;;
19084;SDS011;9675;51.538;6.728;2023-04-09T13:42:01;5.27;;;2.50;;
19084;SDS011;9675;51.538;6.728;2023-04-09T13:44:28;5.40;;;2.53;;
19084;SDS011;9675;51.538;6.728;2023-04-09T13:46:56;5.03;;;3.27;;
19084;SDS011;9675;51.538;6.728;2023-04-09T13:49:23;5.63;;;2.93;;
19084;SDS011;9675;51.538;6.728;2023-04-09T13:51:51;3.67;;;2.33;;
19084;SDS011;9675;51.538;6.728;2023-04-09T13:54:21;5.20;;;3.00;;
19084;SDS011;9675;51.538;6.728;2023-04-09T13:56:48;5.90;;;3.20;;
19084;SDS011;9675;51.538;6.728;2023-04-09T13:59:16;4.67;;;2.83;;
19084;SDS011;9675;51.538;6.728;2023-04-09T14:01:43;5.57;;;2.40;;
19084;SDS011;9675;51.538;6.728;2023-04-09T14:04:10;4.07;;;2.27;;
19084;SDS011;9675;51.538;6.728;2023-04-09T14:06:37;5.30;;;3.03;;
19084;SDS011;9675;51.538;6.728;2023-04-09T14:09:04;6.90;;;2.80;;
19084;SDS011;9675;51.538;6.728;2023-04-09T14:11:32;4.37;;;2.67;;
19084;SDS011;9675;51.538;6.728;2023-04-09T14:14:00;5.70;;;3.50;;
19084;SDS011;9675;51.538;6.728;2023-04-09T14:16:27;7.53;;;3.53;;
19084;SDS011;9675;51.538;6.728;2023-04-09T14:18:55;6.80;;;2.93;;
19084;SDS011;9675;51.538;6.728;2023-04-09T14:21:22;21.93;;;10.10;;
19084;SDS011;9675;51.538;6.728;2023-04-09T14:23:51;4.90;;;2.40;;
19084;SDS011;9675;51.538;6.728;2023-04-09T14:26:18;8.83;;;3.60;;
19084;SDS011;9675;51.538;6.728;2023-04-09T14:28:47;4.70;;;2.70;;
19084;SDS011;9675;51.538;6.728;2023-04-09T14:31:14;9.57;;;4.50;;
19084;SDS011;9675;51.538;6.728;2023-04-09T14:33:44;8.90;;;4.90;;
19084;SDS011;9675;51.538;6.728;2023-04-09T14:36:11;4.13;;;2.77;;
19084;SDS011;9675;51.538;6.728;2023-04-09T14:38:38;7.43;;;4.60;;
19084;SDS011;9675;51.538;6.728;2023-04-09T14:41:05;11.17;;;5.10;;
19084;SDS011;9675;51.538;6.728;2023-04-09T14:43:32;5.87;;;3.43;;
19084;SDS011;9675;51.538;6.728;2023-04-09T14:46:01;6.77;;;3.47;;
19084;SDS011;9675;51.538;6.728;2023-04-09T14:48:30;4.60;;;2.80;;
19084;SDS011;9675;51.538;6.728;2023-04-09T14:50:57;5.13;;;2.83;;
19084;SDS011;9675;51.538;6.728;2023-04-09T14:53:24;5.53;;;2.63;;
19084;SDS011;9675;51.538;6.728;2023-04-09T14:55:51;7.40;;;3.77;;
19084;SDS011;9675;51.538;6.728;2023-04-09T14:58:18;5.73;;;2.60;;
19084;SDS011;9675;51.538;6.728;2023-04-09T15:00:45;6.77;;;3.10;;
19084;SDS011;9675;51.538;6.728;2023-04-09T15:03:14;4.50;;;2.53;;
19084;SDS011;9675;51.538;6.728;2023-04-09T15:05:41;4.47;;;2.77;;
19084;SDS011;9675;51.538;6.728;2023-04-09T15:08:08;4.73;;;2.87;;